ENBN/BNN METAR and TAF weather

Enter ICAO airport designator
Station Type Date Time Source
ENBN METAR 2021/07/29 18:50 UTC NOAA

ENBN 291850Z 36013KT 9999 FEW040CB 15/11 Q0996


Station Type Date Time Source
ENBN Decoded METAR 2021/07/29 18:50 UTC NOAA

Bronnoysund / Bronnoy, Norway (ENBN) 65-28N 012-13E 9M
Jul 29, 2021 - 02:50 PM EDT / 2021.07.29 1850 UTC
Wind: from the N (360 degrees) at 15 MPH (13 KT):0
Visibility: greater than 7 mile(s):0
Sky conditions: mostly clear
Weather: Cumulonimbus clouds observed
Temperature: 59 F (15 C)
Dew Point: 51 F (11 C)
Relative Humidity: 76%
Pressure (altimeter): 29.41 in. Hg (0996 hPa)
ob: ENBN 291850Z 36013KT 9999 FEW040CB 15/11 Q0996
cycle: 19

Station Type Date Time Source
ENBN TAF 2011/03/27 18:12 UTC NOAA

TAF TAF ENBN 261700Z 2618/2718 CNL

Example: see airport list